sensor_id;sensor_type;location;lat;lon;timestamp;P1;durP1;ratioP1;P2;durP2;ratioP2
57317;SDS011;43157;50.982;18.132;2023-04-06T00:01:34;45.70;;;19.80;;
57317;SDS011;43157;50.982;18.132;2023-04-06T00:03:59;42.40;;;16.50;;
57317;SDS011;43157;50.982;18.132;2023-04-06T00:06:25;36.10;;;13.50;;
57317;SDS011;43157;50.982;18.132;2023-04-06T00:08:52;32.80;;;12.60;;
57317;SDS011;43157;50.982;18.132;2023-04-06T00:11:17;37.90;;;14.30;;
57317;SDS011;43157;50.982;18.132;2023-04-06T00:13:43;42.70;;;17.50;;
57317;SDS011;43157;50.982;18.132;2023-04-06T00:16:10;35.20;;;14.20;;
57317;SDS011;43157;50.982;18.132;2023-04-06T00:18:35;36.70;;;13.90;;
57317;SDS011;43157;50.982;18.132;2023-04-06T00:21:02;34.10;;;13.40;;
57317;SDS011;43157;50.982;18.132;2023-04-06T00:23:28;28.60;;;12.20;;
57317;SDS011;43157;50.982;18.132;2023-04-06T00:25:53;50.00;;;19.20;;
57317;SDS011;43157;50.982;18.132;2023-04-06T00:28:19;49.50;;;18.80;;
57317;SDS011;43157;50.982;18.132;2023-04-06T00:30:50;42.70;;;16.00;;
57317;SDS011;43157;50.982;18.132;2023-04-06T00:33:18;37.20;;;16.80;;
57317;SDS011;43157;50.982;18.132;2023-04-06T00:35:45;43.30;;;16.40;;
57317;SDS011;43157;50.982;18.132;2023-04-06T00:38:11;47.90;;;16.70;;
57317;SDS011;43157;50.982;18.132;2023-04-06T00:40:37;41.90;;;16.30;;
57317;SDS011;43157;50.982;18.132;2023-04-06T00:43:05;36.80;;;14.60;;
57317;SDS011;43157;50.982;18.132;2023-04-06T00:45:32;36.80;;;17.10;;
57317;SDS011;43157;50.982;18.132;2023-04-06T00:47:58;47.30;;;18.70;;
57317;SDS011;43157;50.982;18.132;2023-04-06T00:50:24;43.50;;;17.60;;
57317;SDS011;43157;50.982;18.132;2023-04-06T00:52:50;38.90;;;16.90;;
57317;SDS011;43157;50.982;18.132;2023-04-06T00:55:16;40.70;;;16.90;;
57317;SDS011;43157;50.982;18.132;2023-04-06T00:57:43;38.50;;;17.10;;
57317;SDS011;43157;50.982;18.132;2023-04-06T01:00:09;42.30;;;17.30;;
57317;SDS011;43157;50.982;18.132;2023-04-06T01:02:35;44.00;;;16.30;;
57317;SDS011;43157;50.982;18.132;2023-04-06T01:05:01;40.30;;;15.80;;
57317;SDS011;43157;50.982;18.132;2023-04-06T01:07:27;39.50;;;15.80;;
57317;SDS011;43157;50.982;18.132;2023-04-06T01:09:53;47.10;;;16.50;;
57317;SDS011;43157;50.982;18.132;2023-04-06T01:12:19;40.50;;;16.00;;
57317;SDS011;43157;50.982;18.132;2023-04-06T01:14:45;39.40;;;16.10;;
57317;SDS011;43157;50.982;18.132;2023-04-06T01:17:11;45.40;;;16.10;;
57317;SDS011;43157;50.982;18.132;2023-04-06T01:19:37;36.10;;;14.90;;
57317;SDS011;43157;50.982;18.132;2023-04-06T01:22:03;45.10;;;17.30;;
57317;SDS011;43157;50.982;18.132;2023-04-06T01:24:29;40.80;;;17.10;;
57317;SDS011;43157;50.982;18.132;2023-04-06T01:26:55;42.90;;;17.70;;
57317;SDS011;43157;50.982;18.132;2023-04-06T01:29:21;38.70;;;16.60;;
57317;SDS011;43157;50.982;18.132;2023-04-06T01:31:47;40.50;;;18.60;;
57317;SDS011;43157;50.982;18.132;2023-04-06T01:34:13;43.80;;;18.60;;
57317;SDS011;43157;50.982;18.132;2023-04-06T01:36:38;49.50;;;18.70;;
57317;SDS011;43157;50.982;18.132;2023-04-06T01:39:04;46.80;;;18.20;;
57317;SDS011;43157;50.982;18.132;2023-04-06T01:41:30;40.00;;;16.30;;
57317;SDS011;43157;50.982;18.132;2023-04-06T01:43:56;45.40;;;19.20;;
57317;SDS011;43157;50.982;18.132;2023-04-06T01:46:22;42.30;;;17.80;;
57317;SDS011;43157;50.982;18.132;2023-04-06T01:48:47;44.00;;;17.70;;
57317;SDS011;43157;50.982;18.132;2023-04-06T01:51:14;39.50;;;16.90;;
57317;SDS011;43157;50.982;18.132;2023-04-06T01:53:40;39.00;;;16.10;;
57317;SDS011;43157;50.982;18.132;2023-04-06T01:56:06;38.50;;;16.30;;
57317;SDS011;43157;50.982;18.132;2023-04-06T01:58:31;39.30;;;17.60;;
57317;SDS011;43157;50.982;18.132;2023-04-06T02:00:57;43.80;;;18.60;;
57317;SDS011;43157;50.982;18.132;2023-04-06T02:03:23;51.80;;;20.90;;
57317;SDS011;43157;50.982;18.132;2023-04-06T02:05:49;41.60;;;17.80;;
57317;SDS011;43157;50.982;18.132;2023-04-06T02:08:14;43.80;;;18.80;;
57317;SDS011;43157;50.982;18.132;2023-04-06T02:10:40;37.70;;;16.60;;
57317;SDS011;43157;50.982;18.132;2023-04-06T02:13:06;43.70;;;18.30;;
57317;SDS011;43157;50.982;18.132;2023-04-06T02:15:31;41.70;;;16.80;;
57317;SDS011;43157;50.982;18.132;2023-04-06T02:17:57;59.60;;;21.60;;
57317;SDS011;43157;50.982;18.132;2023-04-06T02:20:22;125.50;;;41.60;;
57317;SDS011;43157;50.982;18.132;2023-04-06T02:22:48;242.90;;;65.20;;
57317;SDS011;43157;50.982;18.132;2023-04-06T02:25:14;270.70;;;73.80;;
57317;SDS011;43157;50.982;18.132;2023-04-06T02:27:39;264.70;;;67.40;;
57317;SDS011;43157;50.982;18.132;2023-04-06T02:30:05;214.90;;;57.70;;
57317;SDS011;43157;50.982;18.132;2023-04-06T02:32:32;163.20;;;47.20;;
57317;SDS011;43157;50.982;18.132;2023-04-06T02:34:57;171.20;;;50.80;;
57317;SDS011;43157;50.982;18.132;2023-04-06T02:37:23;166.60;;;47.50;;
57317;SDS011;43157;50.982;18.132;2023-04-06T02:39:49;158.60;;;46.90;;
57317;SDS011;43157;50.982;18.132;2023-04-06T02:42:16;125.50;;;37.30;;
57317;SDS011;43157;50.982;18.132;2023-04-06T02:44:42;99.90;;;31.80;;
57317;SDS011;43157;50.982;18.132;2023-04-06T02:47:08;105.40;;;34.20;;
57317;SDS011;43157;50.982;18.132;2023-04-06T02:49:33;83.60;;;30.10;;
57317;SDS011;43157;50.982;18.132;2023-04-06T02:51:59;57.90;;;20.60;;
57317;SDS011;43157;50.982;18.132;2023-04-06T02:54:25;58.20;;;21.60;;
57317;SDS011;43157;50.982;18.132;2023-04-06T02:56:50;57.70;;;22.80;;
57317;SDS011;43157;50.982;18.132;2023-04-06T02:59:16;54.40;;;22.10;;
57317;SDS011;43157;50.982;18.132;2023-04-06T03:01:42;54.70;;;21.30;;
57317;SDS011;43157;50.982;18.132;2023-04-06T03:04:07;53.90;;;20.60;;
57317;SDS011;43157;50.982;18.132;2023-04-06T03:06:33;54.50;;;22.30;;
57317;SDS011;43157;50.982;18.132;2023-04-06T03:08:59;49.20;;;20.30;;
57317;SDS011;43157;50.982;18.132;2023-04-06T03:11:25;51.90;;;20.20;;
57317;SDS011;43157;50.982;18.132;2023-04-06T03:13:52;54.40;;;21.80;;
57317;SDS011;43157;50.982;18.132;2023-04-06T03:16:17;46.40;;;20.00;;
57317;SDS011;43157;50.982;18.132;2023-04-06T03:18:43;40.10;;;17.50;;
57317;SDS011;43157;50.982;18.132;2023-04-06T03:21:12;47.20;;;20.60;;
57317;SDS011;43157;50.982;18.132;2023-04-06T03:23:40;46.90;;;19.90;;
57317;SDS011;43157;50.982;18.132;2023-04-06T03:26:06;42.90;;;18.90;;
57317;SDS011;43157;50.982;18.132;2023-04-06T03:28:32;45.10;;;19.60;;
57317;SDS011;43157;50.982;18.132;2023-04-06T03:30:58;48.10;;;22.80;;
57317;SDS011;43157;50.982;18.132;2023-04-06T03:33:23;50.40;;;23.20;;
57317;SDS011;43157;50.982;18.132;2023-04-06T03:35:52;60.50;;;28.60;;
57317;SDS011;43157;50.982;18.132;2023-04-06T03:38:18;47.00;;;19.90;;
57317;SDS011;43157;50.982;18.132;2023-04-06T03:40:44;48.30;;;19.60;;
57317;SDS011;43157;50.982;18.132;2023-04-06T03:43:10;44.10;;;20.70;;
57317;SDS011;43157;50.982;18.132;2023-04-06T03:45:35;52.50;;;23.70;;
57317;SDS011;43157;50.982;18.132;2023-04-06T03:48:01;50.30;;;22.30;;
57317;SDS011;43157;50.982;18.132;2023-04-06T03:50:26;48.30;;;21.80;;
57317;SDS011;43157;50.982;18.132;2023-04-06T03:52:52;55.00;;;23.50;;
57317;SDS011;43157;50.982;18.132;2023-04-06T03:55:18;48.70;;;22.80;;
57317;SDS011;43157;50.982;18.132;2023-04-06T03:57:44;50.20;;;23.40;;
57317;SDS011;43157;50.982;18.132;2023-04-06T04:00:10;51.50;;;20.80;;
57317;SDS011;43157;50.982;18.132;2023-04-06T04:14:09;46.80;;;22.20;;
57317;SDS011;43157;50.982;18.132;2023-04-06T04:16:34;52.80;;;21.90;;
57317;SDS011;43157;50.982;18.132;2023-04-06T04:19:00;53.40;;;22.90;;
57317;SDS011;43157;50.982;18.132;2023-04-06T04:21:28;55.50;;;23.30;;
57317;SDS011;43157;50.982;18.132;2023-04-06T04:23:55;52.00;;;23.00;;
57317;SDS011;43157;50.982;18.132;2023-04-06T04:26:21;52.20;;;23.40;;
57317;SDS011;43157;50.982;18.132;2023-04-06T04:28:46;51.30;;;21.80;;
57317;SDS011;43157;50.982;18.132;2023-04-06T04:31:12;50.30;;;22.60;;
57317;SDS011;43157;50.982;18.132;2023-04-06T04:33:37;56.50;;;24.40;;
57317;SDS011;43157;50.982;18.132;2023-04-06T04:36:03;50.10;;;20.60;;
57317;SDS011;43157;50.982;18.132;2023-04-06T04:38:29;53.30;;;22.40;;
57317;SDS011;43157;50.982;18.132;2023-04-06T04:40:55;53.60;;;23.10;;
57317;SDS011;43157;50.982;18.132;2023-04-06T04:43:20;49.90;;;22.30;;
57317;SDS011;43157;50.982;18.132;2023-04-06T04:45:46;52.60;;;22.80;;
57317;SDS011;43157;50.982;18.132;2023-04-06T04:48:14;61.40;;;24.50;;
57317;SDS011;43157;50.982;18.132;2023-04-06T04:50:40;52.80;;;22.40;;
57317;SDS011;43157;50.982;18.132;2023-04-06T04:53:05;59.30;;;24.20;;
57317;SDS011;43157;50.982;18.132;2023-04-06T04:55:31;48.80;;;23.60;;
57317;SDS011;43157;50.982;18.132;2023-04-06T04:57:57;57.30;;;27.20;;
57317;SDS011;43157;50.982;18.132;2023-04-06T05:00:23;61.90;;;25.20;;
57317;SDS011;43157;50.982;18.132;2023-04-06T05:02:49;60.70;;;26.50;;
57317;SDS011;43157;50.982;18.132;2023-04-06T05:05:15;68.50;;;26.20;;
57317;SDS011;43157;50.982;18.132;2023-04-06T05:07:40;68.70;;;27.40;;
57317;SDS011;43157;50.982;18.132;2023-04-06T05:10:06;71.20;;;27.90;;
57317;SDS011;43157;50.982;18.132;2023-04-06T05:12:32;66.20;;;26.60;;
57317;SDS011;43157;50.982;18.132;2023-04-06T05:14:58;72.60;;;29.00;;
57317;SDS011;43157;50.982;18.132;2023-04-06T05:17:24;69.50;;;29.80;;
57317;SDS011;43157;50.982;18.132;2023-04-06T05:19:50;71.00;;;29.60;;
57317;SDS011;43157;50.982;18.132;2023-04-06T05:22:16;80.00;;;30.60;;
57317;SDS011;43157;50.982;18.132;2023-04-06T05:24:43;73.20;;;27.40;;
57317;SDS011;43157;50.982;18.132;2023-04-06T05:27:09;64.80;;;27.40;;
57317;SDS011;43157;50.982;18.132;2023-04-06T05:29:35;58.60;;;26.40;;
57317;SDS011;43157;50.982;18.132;2023-04-06T05:32:01;51.90;;;23.50;;
57317;SDS011;43157;50.982;18.132;2023-04-06T05:34:27;53.80;;;23.40;;
57317;SDS011;43157;50.982;18.132;2023-04-06T05:36:53;49.20;;;22.60;;
57317;SDS011;43157;50.982;18.132;2023-04-06T05:39:18;57.80;;;23.90;;
57317;SDS011;43157;50.982;18.132;2023-04-06T05:41:44;56.20;;;24.20;;
57317;SDS011;43157;50.982;18.132;2023-04-06T05:44:10;53.30;;;22.40;;
57317;SDS011;43157;50.982;18.132;2023-04-06T05:46:35;46.30;;;22.20;;
57317;SDS011;43157;50.982;18.132;2023-04-06T05:49:01;44.20;;;21.20;;
57317;SDS011;43157;50.982;18.132;2023-04-06T05:51:27;45.80;;;21.60;;
57317;SDS011;43157;50.982;18.132;2023-04-06T05:53:53;43.20;;;20.20;;
57317;SDS011;43157;50.982;18.132;2023-04-06T05:56:18;48.70;;;21.20;;
57317;SDS011;43157;50.982;18.132;2023-04-06T05:58:44;48.10;;;19.00;;
57317;SDS011;43157;50.982;18.132;2023-04-06T06:01:09;52.10;;;21.30;;
57317;SDS011;43157;50.982;18.132;2023-04-06T06:03:35;47.60;;;20.50;;
57317;SDS011;43157;50.982;18.132;2023-04-06T06:06:01;47.90;;;21.40;;
57317;SDS011;43157;50.982;18.132;2023-04-06T06:08:28;46.30;;;21.00;;
57317;SDS011;43157;50.982;18.132;2023-04-06T06:10:54;49.30;;;22.70;;
57317;SDS011;43157;50.982;18.132;2023-04-06T06:13:20;52.30;;;23.40;;
57317;SDS011;43157;50.982;18.132;2023-04-06T06:15:47;47.50;;;22.60;;
57317;SDS011;43157;50.982;18.132;2023-04-06T06:18:13;47.10;;;21.50;;
57317;SDS011;43157;50.982;18.132;2023-04-06T06:20:39;51.40;;;22.20;;
57317;SDS011;43157;50.982;18.132;2023-04-06T06:23:05;52.60;;;21.70;;
57317;SDS011;43157;50.982;18.132;2023-04-06T06:25:30;54.00;;;22.60;;
57317;SDS011;43157;50.982;18.132;2023-04-06T06:27:56;55.20;;;22.90;;
57317;SDS011;43157;50.982;18.132;2023-04-06T06:30:22;53.90;;;20.40;;
57317;SDS011;43157;50.982;18.132;2023-04-06T06:32:48;47.80;;;22.20;;
57317;SDS011;43157;50.982;18.132;2023-04-06T06:35:15;43.90;;;20.10;;
57317;SDS011;43157;50.982;18.132;2023-04-06T06:37:40;46.80;;;21.40;;
57317;SDS011;43157;50.982;18.132;2023-04-06T06:40:06;49.90;;;23.20;;
57317;SDS011;43157;50.982;18.132;2023-04-06T06:42:35;44.50;;;22.20;;
57317;SDS011;43157;50.982;18.132;2023-04-06T06:45:02;47.70;;;22.40;;
57317;SDS011;43157;50.982;18.132;2023-04-06T06:47:28;46.50;;;22.00;;
57317;SDS011;43157;50.982;18.132;2023-04-06T06:49:53;42.30;;;20.20;;
57317;SDS011;43157;50.982;18.132;2023-04-06T06:52:19;42.50;;;20.90;;
57317;SDS011;43157;50.982;18.132;2023-04-06T06:54:45;45.90;;;19.90;;
57317;SDS011;43157;50.982;18.132;2023-04-06T06:57:11;43.20;;;19.40;;
57317;SDS011;43157;50.982;18.132;2023-04-06T06:59:36;40.80;;;19.40;;
57317;SDS011;43157;50.982;18.132;2023-04-06T07:02:02;32.90;;;16.80;;
57317;SDS011;43157;50.982;18.132;2023-04-06T07:04:28;44.40;;;20.20;;
57317;SDS011;43157;50.982;18.132;2023-04-06T07:06:54;45.40;;;20.60;;
57317;SDS011;43157;50.982;18.132;2023-04-06T07:09:19;42.20;;;19.30;;
57317;SDS011;43157;50.982;18.132;2023-04-06T07:11:45;42.70;;;19.80;;
57317;SDS011;43157;50.982;18.132;2023-04-06T07:14:11;41.80;;;19.80;;
57317;SDS011;43157;50.982;18.132;2023-04-06T07:16:37;38.70;;;18.30;;
57317;SDS011;43157;50.982;18.132;2023-04-06T07:19:02;27.90;;;14.90;;
57317;SDS011;43157;50.982;18.132;2023-04-06T07:21:28;34.00;;;17.20;;
57317;SDS011;43157;50.982;18.132;2023-04-06T07:23:54;37.60;;;17.10;;
57317;SDS011;43157;50.982;18.132;2023-04-06T07:26:19;37.10;;;17.40;;
57317;SDS011;43157;50.982;18.132;2023-04-06T07:28:45;33.50;;;18.20;;
57317;SDS011;43157;50.982;18.132;2023-04-06T07:31:10;31.40;;;16.40;;
57317;SDS011;43157;50.982;18.132;2023-04-06T07:33:36;41.50;;;20.50;;
57317;SDS011;43157;50.982;18.132;2023-04-06T07:36:02;50.60;;;23.40;;
57317;SDS011;43157;50.982;18.132;2023-04-06T07:38:28;52.10;;;22.30;;
57317;SDS011;43157;50.982;18.132;2023-04-06T07:40:53;58.90;;;24.30;;
57317;SDS011;43157;50.982;18.132;2023-04-06T07:43:19;50.40;;;24.20;;
57317;SDS011;43157;50.982;18.132;2023-04-06T07:45:45;40.70;;;18.80;;
57317;SDS011;43157;50.982;18.132;2023-04-06T07:48:10;32.00;;;16.40;;
57317;SDS011;43157;50.982;18.132;2023-04-06T07:50:36;38.00;;;18.90;;
57317;SDS011;43157;50.982;18.132;2023-04-06T07:53:02;32.00;;;15.60;;
57317;SDS011;43157;50.982;18.132;2023-04-06T07:55:28;30.00;;;14.20;;
57317;SDS011;43157;50.982;18.132;2023-04-06T07:57:53;28.30;;;14.10;;
57317;SDS011;43157;50.982;18.132;2023-04-06T08:00:19;31.00;;;16.10;;
57317;SDS011;43157;50.982;18.132;2023-04-06T08:02:46;29.70;;;14.50;;
57317;SDS011;43157;50.982;18.132;2023-04-06T08:05:11;31.30;;;14.80;;
57317;SDS011;43157;50.982;18.132;2023-04-06T08:07:37;31.40;;;13.30;;
57317;SDS011;43157;50.982;18.132;2023-04-06T08:10:03;29.30;;;14.50;;
57317;SDS011;43157;50.982;18.132;2023-04-06T08:12:29;27.20;;;12.60;;
57317;SDS011;43157;50.982;18.132;2023-04-06T08:14:55;28.50;;;13.10;;
57317;SDS011;43157;50.982;18.132;2023-04-06T08:17:22;28.30;;;15.00;;
57317;SDS011;43157;50.982;18.132;2023-04-06T08:19:48;28.70;;;13.00;;
57317;SDS011;43157;50.982;18.132;2023-04-06T08:22:14;26.20;;;12.40;;
57317;SDS011;43157;50.982;18.132;2023-04-06T08:24:40;19.50;;;10.00;;
57317;SDS011;43157;50.982;18.132;2023-04-06T08:27:06;22.10;;;9.20;;
57317;SDS011;43157;50.982;18.132;2023-04-06T08:29:31;17.50;;;8.40;;
57317;SDS011;43157;50.982;18.132;2023-04-06T08:31:57;19.50;;;9.70;;
57317;SDS011;43157;50.982;18.132;2023-04-06T08:34:22;22.00;;;10.30;;
57317;SDS011;43157;50.982;18.132;2023-04-06T08:36:49;18.20;;;7.90;;
57317;SDS011;43157;50.982;18.132;2023-04-06T08:39:15;14.30;;;6.20;;
57317;SDS011;43157;50.982;18.132;2023-04-06T08:41:43;19.30;;;7.30;;
57317;SDS011;43157;50.982;18.132;2023-04-06T08:44:10;20.40;;;10.70;;
57317;SDS011;43157;50.982;18.132;2023-04-06T08:46:36;20.30;;;9.90;;
57317;SDS011;43157;50.982;18.132;2023-04-06T08:49:02;23.20;;;10.10;;
57317;SDS011;43157;50.982;18.132;2023-04-06T08:51:31;20.00;;;9.40;;
57317;SDS011;43157;50.982;18.132;2023-04-06T08:53:58;16.70;;;8.20;;
57317;SDS011;43157;50.982;18.132;2023-04-06T08:56:24;19.00;;;7.90;;
57317;SDS011;43157;50.982;18.132;2023-04-06T08:58:52;19.40;;;7.20;;
57317;SDS011;43157;50.982;18.132;2023-04-06T09:01:20;21.10;;;7.90;;
57317;SDS011;43157;50.982;18.132;2023-04-06T09:03:46;18.00;;;8.10;;
57317;SDS011;43157;50.982;18.132;2023-04-06T09:06:15;18.10;;;8.30;;
57317;SDS011;43157;50.982;18.132;2023-04-06T09:08:44;18.40;;;6.90;;
57317;SDS011;43157;50.982;18.132;2023-04-06T09:11:10;19.80;;;9.00;;
57317;SDS011;43157;50.982;18.132;2023-04-06T09:16:11;23.50;;;9.90;;
57317;SDS011;43157;50.982;18.132;2023-04-06T09:18:37;21.70;;;10.00;;
57317;SDS011;43157;50.982;18.132;2023-04-06T09:21:03;20.60;;;9.80;;
57317;SDS011;43157;50.982;18.132;2023-04-06T09:23:30;19.60;;;7.40;;
57317;SDS011;43157;50.982;18.132;2023-04-06T09:26:30;18.70;;;7.50;;
57317;SDS011;43157;50.982;18.132;2023-04-06T09:28:50;18.10;;;7.90;;
57317;SDS011;43157;50.982;18.132;2023-04-06T09:31:21;16.20;;;7.00;;
57317;SDS011;43157;50.982;18.132;2023-04-06T09:33:51;23.40;;;10.50;;
57317;SDS011;43157;50.982;18.132;2023-04-06T09:36:17;16.40;;;6.30;;
57317;SDS011;43157;50.982;18.132;2023-04-06T09:38:53;21.90;;;10.20;;
57317;SDS011;43157;50.982;18.132;2023-04-06T09:41:32;18.80;;;8.80;;
57317;SDS011;43157;50.982;18.132;2023-04-06T09:44:06;16.90;;;7.30;;
57317;SDS011;43157;50.982;18.132;2023-04-06T09:46:37;17.60;;;8.20;;
57317;SDS011;43157;50.982;18.132;2023-04-06T09:49:07;21.60;;;9.00;;
57317;SDS011;43157;50.982;18.132;2023-04-06T09:51:39;19.00;;;7.90;;
57317;SDS011;43157;50.982;18.132;2023-04-06T09:54:11;18.10;;;8.50;;
57317;SDS011;43157;50.982;18.132;2023-04-06T09:59:16;54.70;;;21.70;;
57317;SDS011;43157;50.982;18.132;2023-04-06T10:01:46;11.80;;;5.50;;
57317;SDS011;43157;50.982;18.132;2023-04-06T10:06:48;14.40;;;7.20;;
57317;SDS011;43157;50.982;18.132;2023-04-06T10:09:18;15.10;;;6.80;;
57317;SDS011;43157;50.982;18.132;2023-04-06T10:11:44;14.10;;;7.50;;
57317;SDS011;43157;50.982;18.132;2023-04-06T10:14:11;14.90;;;7.50;;
57317;SDS011;43157;50.982;18.132;2023-04-06T10:16:37;14.20;;;7.00;;
57317;SDS011;43157;50.982;18.132;2023-04-06T10:19:06;15.30;;;7.70;;
57317;SDS011;43157;50.982;18.132;2023-04-06T10:21:37;13.60;;;6.80;;
57317;SDS011;43157;50.982;18.132;2023-04-06T10:24:06;15.00;;;6.20;;
57317;SDS011;43157;50.982;18.132;2023-04-06T10:26:35;13.30;;;6.50;;
57317;SDS011;43157;50.982;18.132;2023-04-06T10:29:04;11.90;;;5.90;;
57317;SDS011;43157;50.982;18.132;2023-04-06T10:31:30;13.60;;;5.60;;
57317;SDS011;43157;50.982;18.132;2023-04-06T10:33:57;14.30;;;6.60;;
57317;SDS011;43157;50.982;18.132;2023-04-06T10:36:24;13.80;;;6.10;;
57317;SDS011;43157;50.982;18.132;2023-04-06T10:38:54;17.90;;;7.30;;
57317;SDS011;43157;50.982;18.132;2023-04-06T10:41:22;15.80;;;7.80;;
57317;SDS011;43157;50.982;18.132;2023-04-06T10:43:54;14.30;;;7.00;;
57317;SDS011;43157;50.982;18.132;2023-04-06T10:46:29;12.70;;;5.30;;
57317;SDS011;43157;50.982;18.132;2023-04-06T10:48:56;13.40;;;7.00;;
57317;SDS011;43157;50.982;18.132;2023-04-06T10:51:25;13.20;;;6.60;;
57317;SDS011;43157;50.982;18.132;2023-04-06T10:53:56;11.80;;;6.30;;
57317;SDS011;43157;50.982;18.132;2023-04-06T10:56:23;13.20;;;6.20;;
57317;SDS011;43157;50.982;18.132;2023-04-06T10:58:53;12.60;;;6.00;;
57317;SDS011;43157;50.982;18.132;2023-04-06T11:01:23;16.00;;;7.20;;
57317;SDS011;43157;50.982;18.132;2023-04-06T11:03:53;16.30;;;6.00;;
57317;SDS011;43157;50.982;18.132;2023-04-06T11:06:20;16.40;;;7.30;;
57317;SDS011;43157;50.982;18.132;2023-04-06T11:08:54;14.90;;;6.90;;
57317;SDS011;43157;50.982;18.132;2023-04-06T11:11:22;19.10;;;7.90;;
57317;SDS011;43157;50.982;18.132;2023-04-06T11:16:16;15.10;;;6.90;;
57317;SDS011;43157;50.982;18.132;2023-04-06T11:18:56;14.00;;;6.20;;
57317;SDS011;43157;50.982;18.132;2023-04-06T11:21:32;12.40;;;5.90;;
57317;SDS011;43157;50.982;18.132;2023-04-06T11:26:39;15.40;;;6.60;;
57317;SDS011;43157;50.982;18.132;2023-04-06T11:29:06;12.50;;;6.10;;
57317;SDS011;43157;50.982;18.132;2023-04-06T11:31:31;13.20;;;5.80;;
57317;SDS011;43157;50.982;18.132;2023-04-06T11:34:08;13.00;;;5.80;;
57317;SDS011;43157;50.982;18.132;2023-04-06T11:36:35;11.40;;;5.00;;
57317;SDS011;43157;50.982;18.132;2023-04-06T11:39:03;10.40;;;4.40;;
57317;SDS011;43157;50.982;18.132;2023-04-06T11:41:28;15.90;;;5.90;;
57317;SDS011;43157;50.982;18.132;2023-04-06T11:43:55;15.80;;;6.30;;
57317;SDS011;43157;50.982;18.132;2023-04-06T11:46:21;11.70;;;5.60;;
57317;SDS011;43157;50.982;18.132;2023-04-06T11:48:47;13.40;;;5.80;;
57317;SDS011;43157;50.982;18.132;2023-04-06T11:51:12;14.80;;;7.10;;
57317;SDS011;43157;50.982;18.132;2023-04-06T11:53:47;14.70;;;7.50;;
57317;SDS011;43157;50.982;18.132;2023-04-06T11:56:23;12.30;;;5.60;;
57317;SDS011;43157;50.982;18.132;2023-04-06T11:58:54;13.90;;;5.90;;
57317;SDS011;43157;50.982;18.132;2023-04-06T12:01:20;15.50;;;7.60;;
57317;SDS011;43157;50.982;18.132;2023-04-06T12:03:46;14.20;;;6.00;;
57317;SDS011;43157;50.982;18.132;2023-04-06T12:06:12;14.10;;;6.90;;
57317;SDS011;43157;50.982;18.132;2023-04-06T12:08:38;16.40;;;6.70;;
57317;SDS011;43157;50.982;18.132;2023-04-06T12:11:05;15.60;;;7.10;;
57317;SDS011;43157;50.982;18.132;2023-04-06T12:13:31;14.50;;;6.50;;
57317;SDS011;43157;50.982;18.132;2023-04-06T12:15:56;13.20;;;6.10;;
57317;SDS011;43157;50.982;18.132;2023-04-06T12:18:22;15.50;;;7.40;;
57317;SDS011;43157;50.982;18.132;2023-04-06T12:20:47;14.90;;;6.10;;
57317;SDS011;43157;50.982;18.132;2023-04-06T12:23:13;12.30;;;5.70;;
57317;SDS011;43157;50.982;18.132;2023-04-06T12:25:39;15.80;;;7.00;;
57317;SDS011;43157;50.982;18.132;2023-04-06T12:28:06;17.10;;;6.80;;
57317;SDS011;43157;50.982;18.132;2023-04-06T12:30:32;16.10;;;6.80;;
57317;SDS011;43157;50.982;18.132;2023-04-06T12:32:57;16.80;;;6.70;;
57317;SDS011;43157;50.982;18.132;2023-04-06T12:35:23;14.40;;;6.30;;
57317;SDS011;43157;50.982;18.132;2023-04-06T12:37:49;17.90;;;9.10;;
57317;SDS011;43157;50.982;18.132;2023-04-06T12:40:14;15.80;;;7.10;;
57317;SDS011;43157;50.982;18.132;2023-04-06T12:42:40;14.30;;;7.30;;
57317;SDS011;43157;50.982;18.132;2023-04-06T12:45:07;15.80;;;6.50;;
57317;SDS011;43157;50.982;18.132;2023-04-06T12:47:34;15.50;;;7.80;;
57317;SDS011;43157;50.982;18.132;2023-04-06T12:50:01;13.80;;;6.90;;
57317;SDS011;43157;50.982;18.132;2023-04-06T12:52:27;16.30;;;7.00;;
57317;SDS011;43157;50.982;18.132;2023-04-06T12:54:55;19.30;;;8.70;;
57317;SDS011;43157;50.982;18.132;2023-04-06T12:57:21;18.50;;;8.50;;
57317;SDS011;43157;50.982;18.132;2023-04-06T12:59:47;15.80;;;7.10;;
57317;SDS011;43157;50.982;18.132;2023-04-06T13:02:13;21.50;;;9.30;;
57317;SDS011;43157;50.982;18.132;2023-04-06T13:04:38;19.50;;;7.90;;
57317;SDS011;43157;50.982;18.132;2023-04-06T13:07:04;14.50;;;6.70;;
57317;SDS011;43157;50.982;18.132;2023-04-06T13:09:30;26.70;;;10.20;;
57317;SDS011;43157;50.982;18.132;2023-04-06T13:11:55;44.80;;;18.90;;
57317;SDS011;43157;50.982;18.132;2023-04-06T13:14:22;26.80;;;11.40;;
57317;SDS011;43157;50.982;18.132;2023-04-06T13:16:47;16.90;;;8.80;;
57317;SDS011;43157;50.982;18.132;2023-04-06T13:19:13;18.20;;;9.00;;
57317;SDS011;43157;50.982;18.132;2023-04-06T13:21:39;15.60;;;8.30;;
57317;SDS011;43157;50.982;18.132;2023-04-06T13:24:04;17.00;;;7.80;;
57317;SDS011;43157;50.982;18.132;2023-04-06T13:26:30;16.70;;;7.80;;
57317;SDS011;43157;50.982;18.132;2023-04-06T13:28:56;13.90;;;7.20;;
57317;SDS011;43157;50.982;18.132;2023-04-06T13:31:22;15.10;;;8.10;;
57317;SDS011;43157;50.982;18.132;2023-04-06T13:33:48;17.80;;;8.60;;
57317;SDS011;43157;50.982;18.132;2023-04-06T13:36:13;19.10;;;8.50;;
57317;SDS011;43157;50.982;18.132;2023-04-06T13:38:40;21.00;;;8.80;;
57317;SDS011;43157;50.982;18.132;2023-04-06T13:41:05;15.60;;;7.40;;
57317;SDS011;43157;50.982;18.132;2023-04-06T13:43:31;23.00;;;8.40;;
57317;SDS011;43157;50.982;18.132;2023-04-06T13:45:57;22.80;;;9.70;;
57317;SDS011;43157;50.982;18.132;2023-04-06T13:48:25;18.60;;;9.30;;
57317;SDS011;43157;50.982;18.132;2023-04-06T13:50:54;22.50;;;9.40;;
57317;SDS011;43157;50.982;18.132;2023-04-06T13:53:20;34.90;;;14.80;;
57317;SDS011;43157;50.982;18.132;2023-04-06T13:55:52;17.20;;;8.30;;
57317;SDS011;43157;50.982;18.132;2023-04-06T13:58:21;22.10;;;9.50;;
57317;SDS011;43157;50.982;18.132;2023-04-06T14:00:46;19.40;;;9.40;;
57317;SDS011;43157;50.982;18.132;2023-04-06T14:03:12;20.00;;;9.70;;
57317;SDS011;43157;50.982;18.132;2023-04-06T14:05:37;20.20;;;9.90;;
57317;SDS011;43157;50.982;18.132;2023-04-06T14:08:03;17.20;;;9.20;;
57317;SDS011;43157;50.982;18.132;2023-04-06T14:10:28;17.70;;;9.40;;
57317;SDS011;43157;50.982;18.132;2023-04-06T14:12:54;15.10;;;7.40;;
57317;SDS011;43157;50.982;18.132;2023-04-06T14:15:21;17.10;;;9.00;;
57317;SDS011;43157;50.982;18.132;2023-04-06T14:17:47;21.70;;;9.30;;
57317;SDS011;43157;50.982;18.132;2023-04-06T14:20:13;18.40;;;9.40;;
57317;SDS011;43157;50.982;18.132;2023-04-06T14:22:40;20.40;;;9.10;;
57317;SDS011;43157;50.982;18.132;2023-04-06T14:25:08;20.20;;;10.20;;
57317;SDS011;43157;50.982;18.132;2023-04-06T14:27:34;18.60;;;9.80;;
57317;SDS011;43157;50.982;18.132;2023-04-06T14:30:00;19.10;;;9.40;;
57317;SDS011;43157;50.982;18.132;2023-04-06T14:32:26;23.00;;;10.70;;
57317;SDS011;43157;50.982;18.132;2023-04-06T14:34:52;19.70;;;10.60;;